createdAt,value
2023-04-15T00:00:02.634Z,1.04
2023-04-15T00:01:02.754Z,1.04
2023-04-15T00:02:02.413Z,1.04
2023-04-15T00:03:02.568Z,1.04
2023-04-15T00:04:02.595Z,1.04
2023-04-15T00:05:02.680Z,1.04
2023-04-15T00:06:02.823Z,1.04
2023-04-15T00:07:02.962Z,1.04
2023-04-15T00:08:03.127Z,1.04
2023-04-15T00:09:03.398Z,1.04
2023-04-15T00:10:03.442Z,1.04
2023-04-15T00:11:03.574Z,1.04
2023-04-15T00:12:03.746Z,1.04
2023-04-15T00:13:03.840Z,1.04
2023-04-15T00:14:03.997Z,1.04
2023-04-15T00:15:04.659Z,1.04
2023-04-15T00:16:04.246Z,1.04
2023-04-15T00:17:04.580Z,1.04
2023-04-15T00:18:04.598Z,1.04
2023-04-15T00:19:04.691Z,1.04
2023-04-15T00:20:04.790Z,1.04
2023-04-15T00:21:04.937Z,1.04
2023-04-15T00:22:05.088Z,1.04
2023-04-15T00:23:05.262Z,1.04
2023-04-15T00:24:05.396Z,1.04
2023-04-15T00:25:05.556Z,1.04
2023-04-15T00:26:05.712Z,1.04
2023-04-15T00:27:05.806Z,1.04
2023-04-15T00:28:05.952Z,1.04
2023-04-15T00:29:06.111Z,1.04
2023-04-15T00:30:06.751Z,1.04
2023-04-15T00:31:06.485Z,1.04
2023-04-15T00:32:06.514Z,1.04
2023-04-15T00:33:06.694Z,1.04
2023-04-15T00:34:06.829Z,1.04
2023-04-15T00:35:06.971Z,1.04
2023-04-15T00:36:07.126Z,1.04
2023-04-15T00:37:07.267Z,1.04
2023-04-15T00:38:07.436Z,1.04
2023-04-15T00:39:07.510Z,1.04
2023-04-15T00:40:07.682Z,1.04
2023-04-15T00:41:07.762Z,1.04
2023-04-15T00:42:07.873Z,1.04
2023-04-15T00:43:08.035Z,1.04
2023-04-15T00:44:08.177Z,1.04
2023-04-15T00:45:08.855Z,1.04
2023-04-15T00:46:08.493Z,1.04
2023-04-15T00:47:08.629Z,1.04
2023-04-15T00:48:08.792Z,1.04
2023-04-15T00:49:08.927Z,1.04
2023-04-15T00:50:09.049Z,1.04
2023-04-15T00:51:09.150Z,1.04
2023-04-15T00:52:09.296Z,1.04
2023-04-15T00:53:09.414Z,1.04
2023-04-15T00:54:09.512Z,1.04
2023-04-15T00:55:09.643Z,1.04
2023-04-15T00:56:09.806Z,1.04
2023-04-15T00:57:09.950Z,1.04
2023-04-15T00:58:10.110Z,1.04
2023-04-15T00:59:10.268Z,1.04
2023-04-15T01:00:10.837Z,1.04
2023-04-15T01:01:10.569Z,1.04
2023-04-15T01:02:10.826Z,1.04
2023-04-15T01:03:10.988Z,1.04
2023-04-15T01:04:11.126Z,1.04
2023-04-15T01:05:11.186Z,1.04
2023-04-15T01:06:11.335Z,1.04
2023-04-15T01:07:11.473Z,1.04
2023-04-15T01:08:11.617Z,1.04
2023-04-15T01:09:11.778Z,1.04
2023-04-15T01:10:11.935Z,1.04
2023-04-15T01:11:12.075Z,1.04
2023-04-15T01:12:12.237Z,1.04
2023-04-15T01:13:12.383Z,1.04
2023-04-15T01:14:12.521Z,1.04
2023-04-15T01:15:13.154Z,1.04
2023-04-15T01:17:12.916Z,1.04
2023-04-15T01:18:13.077Z,1.04
2023-04-15T01:19:13.231Z,1.04
2023-04-15T01:20:13.404Z,1.04
2023-04-15T01:21:13.533Z,1.04
2023-04-15T01:22:13.683Z,1.04
2023-04-15T01:23:13.806Z,1.04
2023-04-15T01:24:13.939Z,1.04
2023-04-15T01:25:14.136Z,1.04
2023-04-15T01:26:14.259Z,1.04
2023-04-15T01:27:14.403Z,1.04
2023-04-15T01:28:14.570Z,1.04
2023-04-15T01:29:14.702Z,1.04
2023-04-15T01:30:15.340Z,1.04
2023-04-15T01:31:14.977Z,1.04
2023-04-15T01:32:15.040Z,1.04
2023-04-15T01:33:15.199Z,1.04
2023-04-15T01:34:15.312Z,1.04
2023-04-15T01:35:15.454Z,1.04
2023-04-15T01:36:15.626Z,1.04
2023-04-15T01:37:15.753Z,1.04
2023-04-15T01:38:15.910Z,1.04
2023-04-15T01:39:16.106Z,1.04
2023-04-15T01:40:16.164Z,1.04
2023-04-15T01:41:16.280Z,1.04
2023-04-15T01:42:16.420Z,1.04
2023-04-15T01:43:16.592Z,1.04
2023-04-15T01:44:16.734Z,1.04
2023-04-15T01:45:17.367Z,1.04
2023-04-15T01:46:17.056Z,1.04
2023-04-15T01:47:17.168Z,1.04
2023-04-15T01:48:17.338Z,1.04
2023-04-15T01:49:17.474Z,1.04
2023-04-15T01:50:17.627Z,1.04
2023-04-15T01:51:17.801Z,1.04
2023-04-15T01:52:17.929Z,1.04
2023-04-15T01:53:18.089Z,1.04
2023-04-15T01:54:18.195Z,1.04
2023-04-15T01:55:18.345Z,1.04
2023-04-15T01:56:18.492Z,1.04
2023-04-15T01:57:18.665Z,1.04
2023-04-15T01:58:18.797Z,1.04
2023-04-15T01:59:19.000Z,1.04
2023-04-15T02:00:20.162Z,1.04
2023-04-15T02:01:19.332Z,1.04
2023-04-15T02:02:19.521Z,1.04
2023-04-15T02:03:19.615Z,1.04
2023-04-15T02:04:19.703Z,1.04
2023-04-15T02:05:19.864Z,1.04
2023-04-15T02:06:20.017Z,1.04
2023-04-15T02:07:20.125Z,1.04
2023-04-15T02:08:20.270Z,1.04
2023-04-15T02:09:20.425Z,1.04
2023-04-15T02:10:20.567Z,1.04
2023-04-15T02:11:20.731Z,1.04
2023-04-15T02:12:20.871Z,1.04
2023-04-15T02:13:21.026Z,1.04
2023-04-15T02:14:21.182Z,1.04
2023-04-15T02:15:21.891Z,1.04
2023-04-15T02:16:21.570Z,1.04
2023-04-15T02:17:21.657Z,1.04
2023-04-15T02:18:21.779Z,1.04
2023-04-15T02:19:21.933Z,1.04
2023-04-15T02:20:22.079Z,1.04
2023-04-15T02:21:22.249Z,1.04
2023-04-15T02:22:22.388Z,1.04
2023-04-15T02:23:22.542Z,1.04
2023-04-15T02:24:22.713Z,1.04
2023-04-15T02:25:22.855Z,1.04
2023-04-15T02:26:23.003Z,1.04
2023-04-15T02:27:23.144Z,1.04
2023-04-15T02:28:23.309Z,1.04
2023-04-15T02:29:23.451Z,1.04
2023-04-15T02:30:24.210Z,1.04
2023-04-15T02:31:23.858Z,1.04
2023-04-15T02:32:23.938Z,1.04
2023-04-15T02:33:24.056Z,1.04
2023-04-15T02:34:24.222Z,1.04
2023-04-15T02:35:24.358Z,1.04
2023-04-15T02:36:24.510Z,1.04
2023-04-15T02:37:24.658Z,1.04
2023-04-15T02:38:24.828Z,1.04
2023-04-15T02:39:24.951Z,1.04
2023-04-15T02:40:25.111Z,1.04
2023-04-15T02:41:25.220Z,1.04
2023-04-15T02:42:25.319Z,1.04
2023-04-15T02:43:25.444Z,1.04
2023-04-15T02:44:26.130Z,1.04
2023-04-15T02:45:25.708Z,1.04
2023-04-15T02:46:25.972Z,1.04
2023-04-15T02:47:26.078Z,1.04
2023-04-15T02:48:26.134Z,1.04
2023-04-15T02:49:26.242Z,1.04
2023-04-15T02:50:26.379Z,1.04
2023-04-15T02:51:26.528Z,1.04
2023-04-15T02:52:26.702Z,1.04
2023-04-15T02:53:26.853Z,1.04
2023-04-15T02:54:26.987Z,1.04
2023-04-15T02:55:27.149Z,1.04
2023-04-15T02:56:27.284Z,1.04
2023-04-15T02:57:27.438Z,1.04
2023-04-15T02:58:27.592Z,1.04
2023-04-15T02:59:28.171Z,1.04
2023-04-15T03:00:27.827Z,1.04
2023-04-15T03:01:27.998Z,1.04
2023-04-15T03:02:28.279Z,1.04
2023-04-15T03:03:28.331Z,1.04
2023-04-15T03:04:28.394Z,1.04
2023-04-15T03:05:28.549Z,1.04
2023-04-15T03:06:28.643Z,1.04
2023-04-15T03:07:28.752Z,1.04
2023-04-15T03:08:28.902Z,1.04
2023-04-15T03:09:29.049Z,1.04
2023-04-15T03:10:29.204Z,1.04
2023-04-15T03:11:29.391Z,1.04
2023-04-15T03:12:29.513Z,1.04
2023-04-15T03:13:29.607Z,1.04
2023-04-15T03:14:29.756Z,1.04
2023-04-15T03:15:29.949Z,1.04
2023-04-15T03:16:30.051Z,1.04
2023-04-15T03:17:30.308Z,1.04
2023-04-15T03:18:30.367Z,1.04
2023-04-15T03:19:30.502Z,1.04
2023-04-15T03:20:30.684Z,1.04
2023-04-15T03:21:30.851Z,1.04
2023-04-15T03:22:30.983Z,1.04
2023-04-15T03:23:31.084Z,1.04
2023-04-15T03:24:31.226Z,1.04
2023-04-15T03:25:31.336Z,1.04
2023-04-15T03:26:31.477Z,1.04
2023-04-15T03:27:31.581Z,1.04
2023-04-15T03:28:31.678Z,1.04
2023-04-15T03:29:32.316Z,1.04
2023-04-15T03:30:31.993Z,1.04
2023-04-15T03:31:32.194Z,1.04
2023-04-15T03:32:32.320Z,1.04
2023-04-15T03:33:32.444Z,1.04
2023-04-15T03:34:32.604Z,1.04
2023-04-15T03:35:32.749Z,1.04
2023-04-15T03:36:32.910Z,1.04
2023-04-15T03:37:33.053Z,1.04
2023-04-15T03:38:33.196Z,1.04
2023-04-15T03:39:33.360Z,1.04
2023-04-15T03:40:33.518Z,1.04
2023-04-15T03:41:33.655Z,1.04
2023-04-15T03:42:33.804Z,1.04
2023-04-15T03:43:33.958Z,1.04
2023-04-15T03:44:34.651Z,1.04
2023-04-15T03:45:34.200Z,1.04
2023-04-15T03:46:34.407Z,2
2023-04-15T03:47:34.532Z,2
2023-04-15T03:48:34.669Z,2
2023-04-15T03:49:34.827Z,2
2023-04-15T03:50:34.994Z,2
2023-04-15T03:51:35.141Z,3.04
2023-04-15T03:52:35.276Z,3.04
2023-04-15T03:53:35.373Z,3.04
2023-04-15T03:54:35.485Z,3.04
2023-04-15T03:55:35.594Z,4
2023-04-15T03:56:35.733Z,5.04
2023-04-15T03:57:35.879Z,6
2023-04-15T03:58:35.984Z,6
2023-04-15T03:59:36.577Z,7.04
2023-04-15T04:00:36.251Z,8
2023-04-15T04:01:36.391Z,9.04
2023-04-15T04:02:36.627Z,11.04
2023-04-15T04:03:36.799Z,13.04
2023-04-15T04:04:36.859Z,15.04
2023-04-15T04:05:36.944Z,17.04
2023-04-15T04:06:37.101Z,18
2023-04-15T04:07:37.190Z,19.04
2023-04-15T04:08:37.340Z,21.04
2023-04-15T04:09:37.505Z,22
2023-04-15T04:10:37.661Z,24
2023-04-15T04:11:37.812Z,26
2023-04-15T04:12:37.954Z,28
2023-04-15T04:13:38.118Z,32
2023-04-15T04:14:38.687Z,33.04
2023-04-15T04:15:38.477Z,35.04
2023-04-15T04:16:38.632Z,36
2023-04-15T04:17:38.767Z,43.04
2023-04-15T04:18:38.868Z,47.04
2023-04-15T04:19:39.015Z,49.04
2023-04-15T04:20:39.161Z,50
2023-04-15T04:21:39.314Z,52
2023-04-15T04:22:39.460Z,55.04
2023-04-15T04:23:39.630Z,58
2023-04-15T04:24:39.788Z,61.04
2023-04-15T04:25:39.949Z,67.04
2023-04-15T04:26:40.094Z,71.04
2023-04-15T04:27:40.226Z,78
2023-04-15T04:28:40.378Z,93.04
2023-04-15T04:29:41.048Z,101.04
2023-04-15T04:30:40.640Z,104
2023-04-15T04:31:40.814Z,115.04
2023-04-15T04:32:40.951Z,119.04
2023-04-15T04:33:41.028Z,116
2023-04-15T04:34:41.185Z,125.04
2023-04-15T04:35:41.304Z,121.04
2023-04-15T04:36:41.432Z,125.04
2023-04-15T04:37:41.580Z,138
2023-04-15T04:38:41.693Z,152
2023-04-15T04:39:41.840Z,167.04
2023-04-15T04:40:42.013Z,200
2023-04-15T04:41:42.151Z,216
2023-04-15T04:42:42.304Z,242.08
2023-04-15T04:43:42.442Z,265.12
2023-04-15T04:44:43.132Z,265.12
2023-04-15T04:45:42.792Z,267.04
2023-04-15T04:46:42.807Z,268
2023-04-15T04:47:43.047Z,290.08
2023-04-15T04:48:43.401Z,319.04
2023-04-15T04:49:43.231Z,331.2
2023-04-15T04:50:43.360Z,308
2023-04-15T04:51:43.505Z,313.12
2023-04-15T04:52:43.665Z,306.08
2023-04-15T04:53:43.811Z,307.04
2023-04-15T04:54:43.906Z,324
2023-04-15T04:55:44.056Z,400
2023-04-15T04:56:44.216Z,448
2023-04-15T04:57:44.377Z,466.24
2023-04-15T04:58:44.528Z,478.08
2023-04-15T04:59:45.206Z,513.28
2023-04-15T05:00:44.830Z,518.08
2023-04-15T05:01:45.036Z,608
2023-04-15T05:02:45.157Z,624
2023-04-15T05:03:45.309Z,536
2023-04-15T05:04:45.373Z,467.2
2023-04-15T05:05:45.522Z,494.08
2023-04-15T05:06:45.679Z,502.08
2023-04-15T05:07:45.825Z,488
2023-04-15T05:08:45.979Z,404.16
2023-04-15T05:09:46.085Z,438.08
2023-04-15T05:10:46.226Z,407.04
2023-04-15T05:11:46.390Z,435.2
2023-04-15T05:12:46.557Z,440
2023-04-15T05:13:46.689Z,482.24
2023-04-15T05:14:47.362Z,467.2
2023-04-15T05:15:46.965Z,524.16
2023-04-15T05:16:47.090Z,621.12
2023-04-15T05:17:47.315Z,680.32
2023-04-15T05:18:47.401Z,713.6
2023-04-15T05:19:47.554Z,899.2
2023-04-15T05:20:47.706Z,1085.44
2023-04-15T05:21:47.831Z,1172.48
2023-04-15T05:22:47.983Z,1143.04
2023-04-15T05:23:48.129Z,1156.48
2023-04-15T05:24:48.254Z,1085.44
2023-04-15T05:25:48.400Z,1027.2
2023-04-15T05:26:48.559Z,963.2
2023-04-15T05:27:48.706Z,886.4
2023-04-15T05:28:48.862Z,850.56
2023-04-15T05:29:49.520Z,797.44
2023-04-15T05:30:49.217Z,814.08
2023-04-15T05:31:49.280Z,798.08
2023-04-15T05:32:49.501Z,751.36
2023-04-15T05:33:49.585Z,704
2023-04-15T05:34:49.713Z,749.44
2023-04-15T05:35:49.866Z,756.48
2023-04-15T05:36:50.035Z,869.12
2023-04-15T05:37:50.182Z,1087.36
2023-04-15T05:38:50.340Z,1196.16
2023-04-15T05:39:50.479Z,1200
2023-04-15T05:40:50.626Z,1422.08
2023-04-15T05:41:50.783Z,2172.16
2023-04-15T05:42:50.881Z,2593.28
2023-04-15T05:43:51.034Z,2540.8
2023-04-15T05:44:51.766Z,2291.2
2023-04-15T05:45:51.383Z,2430.72
2023-04-15T05:46:51.436Z,2877.44
2023-04-15T05:47:51.647Z,2818.56
2023-04-15T05:48:51.754Z,2530.56
2023-04-15T05:49:51.913Z,1950.72
2023-04-15T05:50:52.034Z,1565.44
2023-04-15T05:51:52.150Z,1341.44
2023-04-15T05:52:52.306Z,1157.12
2023-04-15T05:53:52.451Z,1142.4
2023-04-15T05:54:52.560Z,1170.56
2023-04-15T05:55:52.696Z,1198.08
2023-04-15T05:56:52.863Z,1258.24
2023-04-15T05:57:53.009Z,1401.6
2023-04-15T05:58:53.866Z,1570.56
2023-04-15T05:59:53.233Z,1802.24
2023-04-15T06:00:53.383Z,2163.2
2023-04-15T06:01:53.541Z,2437.12
2023-04-15T06:02:53.650Z,2620.16
2023-04-15T06:03:53.796Z,2634.24
2023-04-15T06:04:53.866Z,2485.76
2023-04-15T06:05:53.996Z,2355.2
2023-04-15T06:06:54.092Z,1977.6
2023-04-15T06:07:54.197Z,1640.96
2023-04-15T06:08:54.372Z,1461.76
2023-04-15T06:09:54.503Z,1315.84
2023-04-15T06:10:54.603Z,1328.64
2023-04-15T06:11:54.752Z,1364.48
2023-04-15T06:12:54.853Z,1524.48
2023-04-15T06:13:55.016Z,1687.04
2023-04-15T06:14:55.108Z,1917.44
2023-04-15T06:15:55.278Z,2293.76
2023-04-15T06:16:55.363Z,2767.36
2023-04-15T06:17:55.467Z,3338.24
2023-04-15T06:18:55.570Z,3683.84
2023-04-15T06:19:55.764Z,3865.6
2023-04-15T06:20:55.864Z,3978.24
2023-04-15T06:21:55.976Z,4203.52
2023-04-15T06:22:56.122Z,4331.52
2023-04-15T06:23:56.269Z,4390.4
2023-04-15T06:24:56.420Z,4426.24
2023-04-15T06:25:56.932Z,4741.12
2023-04-15T06:26:56.735Z,4812.8
2023-04-15T06:27:56.931Z,4989.44
2023-04-15T06:28:57.065Z,5258.24
2023-04-15T06:29:57.691Z,5719.04
2023-04-15T06:30:57.321Z,6046.72
2023-04-15T06:31:57.490Z,6220.8
2023-04-15T06:32:57.590Z,5990.4
2023-04-15T06:33:57.668Z,5826.56
2023-04-15T06:34:57.805Z,5872.64
2023-04-15T06:35:57.963Z,5836.8
2023-04-15T06:36:58.118Z,5882.88
2023-04-15T06:37:58.279Z,5888
2023-04-15T06:38:58.384Z,5719.04
2023-04-15T06:39:58.519Z,5068.8
2023-04-15T06:40:58.663Z,4503.04
2023-04-15T06:41:58.815Z,4175.36
2023-04-15T06:42:58.965Z,4267.52
2023-04-15T06:43:59.127Z,4666.88
2023-04-15T06:44:59.911Z,4751.36
2023-04-15T06:45:59.499Z,5007.36
2023-04-15T06:46:59.560Z,4710.4
2023-04-15T06:47:59.767Z,4472.32
2023-04-15T06:48:59.963Z,4029.44
2023-04-15T06:49:59.933Z,3786.24
2023-04-15T06:51:00.116Z,3527.68
2023-04-15T06:52:00.226Z,3404.8
2023-04-15T06:53:00.395Z,3612.16
2023-04-15T06:54:00.542Z,3840
2023-04-15T06:55:00.701Z,3980.8
2023-04-15T06:56:00.831Z,4203.52
2023-04-15T06:57:00.992Z,4270.08
2023-04-15T06:58:01.189Z,5114.88
2023-04-15T06:59:01.386Z,5365.76
2023-04-15T07:00:02.070Z,5176.32
2023-04-15T07:01:01.638Z,5191.68
2023-04-15T07:02:01.804Z,5611.52
2023-04-15T07:03:01.957Z,6051.84
2023-04-15T07:04:02.048Z,6466.56
2023-04-15T07:05:02.105Z,6451.2
2023-04-15T07:06:02.233Z,6261.76
2023-04-15T07:07:02.373Z,6645.76
2023-04-15T07:08:02.506Z,6353.92
2023-04-15T07:09:02.775Z,5616.64
2023-04-15T07:10:02.813Z,5473.28
2023-04-15T07:11:02.978Z,5463.04
2023-04-15T07:12:03.131Z,5181.44
2023-04-15T07:13:03.261Z,4544
2023-04-15T07:14:03.365Z,4544
2023-04-15T07:15:04.105Z,4710.4
2023-04-15T07:16:03.685Z,4487.68
2023-04-15T07:17:03.835Z,4523.52
2023-04-15T07:18:04.119Z,4669.44
2023-04-15T07:19:04.427Z,4715.52
2023-04-15T07:20:04.173Z,5560.32
2023-04-15T07:21:04.335Z,6696.96
2023-04-15T07:22:04.425Z,7121.92
2023-04-15T07:23:04.572Z,6876.16
2023-04-15T07:24:04.680Z,6522.88
2023-04-15T07:25:04.846Z,6318.08
2023-04-15T07:26:04.983Z,6169.6
2023-04-15T07:27:05.131Z,6630.4
2023-04-15T07:28:05.234Z,7034.88
2023-04-15T07:29:05.384Z,7152.64
2023-04-15T07:30:05.482Z,6819.84
2023-04-15T07:31:05.638Z,7347.2
2023-04-15T07:32:05.803Z,7690.24
2023-04-15T07:33:05.947Z,8074.24
2023-04-15T07:34:06.099Z,8104.96
2023-04-15T07:35:06.192Z,7920.64
2023-04-15T07:36:06.360Z,7664.64
2023-04-15T07:37:06.498Z,7383.04
2023-04-15T07:38:06.601Z,6876.16
2023-04-15T07:39:06.772Z,6256.64
2023-04-15T07:40:06.940Z,6118.4
2023-04-15T07:41:07.063Z,6502.4
2023-04-15T07:42:07.206Z,6906.88
2023-04-15T07:43:07.396Z,7429.12
2023-04-15T07:44:07.535Z,8171.52
2023-04-15T07:45:08.112Z,8632.319
2023-04-15T07:46:07.860Z,8995.84
2023-04-15T07:47:07.995Z,9635.84
2023-04-15T07:48:08.128Z,9820.16
2023-04-15T07:49:08.294Z,9594.88
2023-04-15T07:50:08.418Z,9717.76
2023-04-15T07:51:08.526Z,9502.72
2023-04-15T07:52:08.635Z,8632.319
2023-04-15T07:53:08.854Z,8192
2023-04-15T07:54:08.945Z,8048.64
2023-04-15T07:55:09.103Z,9272.319
2023-04-15T07:56:09.234Z,10833.92
2023-04-15T07:57:09.388Z,11991.04
2023-04-15T07:58:09.495Z,11991.04
2023-04-15T07:59:09.645Z,12042.239
2023-04-15T08:00:10.274Z,11868.16
2023-04-15T08:01:09.850Z,10854.399
2023-04-15T08:02:10.089Z,9989.12
2023-04-15T08:03:10.286Z,9784.319
2023-04-15T08:04:10.364Z,10055.68
2023-04-15T08:05:10.446Z,10429.439
2023-04-15T08:06:10.543Z,11038.72
2023-04-15T08:07:10.713Z,11622.399
2023-04-15T08:08:10.869Z,11601.92
2023-04-15T08:09:11.003Z,10854.399
2023-04-15T08:10:11.187Z,10398.72
2023-04-15T08:11:11.263Z,10670.08
2023-04-15T08:12:11.411Z,11294.72
2023-04-15T08:13:11.562Z,12124.16
2023-04-15T08:14:11.665Z,12851.2
2023-04-15T08:15:12.322Z,16066.56
2023-04-15T08:16:12.000Z,17643.52
2023-04-15T08:17:12.027Z,16148.479
2023-04-15T08:18:12.173Z,14274.56
2023-04-15T08:19:12.268Z,11509.76
2023-04-15T08:20:12.407Z,10670.08
2023-04-15T08:21:12.571Z,10378.24
2023-04-15T08:22:15.483Z,10496
2023-04-15T08:23:12.893Z,10967.04
2023-04-15T08:24:13.037Z,11929.6
2023-04-15T08:25:13.180Z,12933.12
2023-04-15T08:26:13.277Z,15923.199
2023-04-15T08:27:13.434Z,17295.36
2023-04-15T08:28:13.582Z,16291.84
2023-04-15T08:29:13.682Z,14796.8
2023-04-15T08:30:14.470Z,12963.84
2023-04-15T08:31:14.013Z,11448.319
2023-04-15T08:32:14.095Z,11048.96
2023-04-15T08:33:14.242Z,10690.56
2023-04-15T08:34:14.356Z,10250.24
2023-04-15T08:35:14.484Z,10772.479
2023-04-15T08:36:14.646Z,11243.52
2023-04-15T08:37:14.790Z,10577.92
2023-04-15T08:38:14.954Z,10311.68
2023-04-15T08:39:15.103Z,10245.12
2023-04-15T08:40:15.257Z,10577.92
2023-04-15T08:41:15.401Z,11284.479
2023-04-15T08:42:15.524Z,12021.76
2023-04-15T08:43:15.655Z,13803.52
2023-04-15T08:44:15.815Z,15247.359
2023-04-15T08:45:16.679Z,14213.12
2023-04-15T08:47:16.273Z,10752
2023-04-15T08:48:16.422Z,10813.439
2023-04-15T08:49:16.567Z,11694.08
2023-04-15T08:50:16.718Z,12288
2023-04-15T08:51:16.861Z,12554.239
2023-04-15T08:52:17.031Z,13445.12
2023-04-15T08:53:17.160Z,15042.56
2023-04-15T08:54:17.783Z,14581.76
2023-04-15T08:55:17.421Z,12943.359
2023-04-15T08:56:17.626Z,11294.72
2023-04-15T08:57:17.684Z,10516.479
2023-04-15T08:58:17.830Z,10250.24
2023-04-15T08:59:17.975Z,11499.52
2023-04-15T09:00:18.669Z,12851.2
2023-04-15T09:01:18.316Z,14991.359
2023-04-15T09:02:18.532Z,16588.8
2023-04-15T09:04:18.776Z,17408
2023-04-15T09:05:18.836Z,18432
2023-04-15T09:06:19.033Z,20961.28
2023-04-15T09:07:19.158Z,21688.32
2023-04-15T09:08:19.335Z,22118.4
2023-04-15T09:09:19.448Z,24494.08
2023-04-15T09:10:19.620Z,25640.96
2023-04-15T09:11:20.261Z,23511.04
2023-04-15T09:12:19.893Z,23613.44
2023-04-15T09:13:20.069Z,24309.76
2023-04-15T09:14:20.211Z,25989.12
2023-04-15T09:15:21.358Z,21872.64
2023-04-15T09:16:20.497Z,17653.76
2023-04-15T09:17:20.669Z,17971.2
2023-04-15T09:18:20.766Z,19701.76
2023-04-15T09:19:20.909Z,19015.68
2023-04-15T09:20:21.084Z,18442.24
2023-04-15T09:21:21.217Z,17233.92
2023-04-15T09:22:21.361Z,14673.92
2023-04-15T09:23:21.526Z,16885.76
2023-04-15T09:24:21.658Z,16363.52
2023-04-15T09:25:21.815Z,14387.199
2023-04-15T09:26:21.977Z,14284.8
2023-04-15T09:27:22.113Z,13875.199
2023-04-15T09:28:22.249Z,14673.92
2023-04-15T09:29:22.374Z,15759.359
2023-04-15T09:30:23.049Z,16691.2
2023-04-15T09:31:22.702Z,17397.76
2023-04-15T09:32:22.846Z,18483.2
2023-04-15T09:33:22.978Z,17530.88
2023-04-15T09:34:23.126Z,17397.76
2023-04-15T09:35:23.258Z,15329.279
2023-04-15T09:36:23.395Z,15390.72
2023-04-15T09:37:31.954Z,16711.68
2023-04-15T09:38:23.671Z,18575.36
2023-04-15T09:39:23.835Z,17745.92
2023-04-15T09:40:23.935Z,15441.92
2023-04-15T09:41:24.072Z,14346.239
2023-04-15T09:42:24.294Z,14632.96
2023-04-15T09:43:24.343Z,15370.239
2023-04-15T09:44:24.489Z,15851.52
2023-04-15T09:45:27.113Z,15093.76
2023-04-15T09:46:24.762Z,14960.64
2023-04-15T09:47:24.896Z,14940.159
2023-04-15T09:48:25.047Z,13506.56
2023-04-15T09:49:25.250Z,12472.319
2023-04-15T09:50:25.376Z,11540.479
2023-04-15T09:51:25.495Z,11642.88
2023-04-15T09:52:25.654Z,11182.08
2023-04-15T09:53:25.817Z,11489.279
2023-04-15T09:54:25.966Z,14346.239
2023-04-15T09:55:26.102Z,16209.92
2023-04-15T09:56:26.235Z,14981.12
2023-04-15T09:57:26.370Z,14510.08
2023-04-15T09:58:26.519Z,13731.84
2023-04-15T09:59:27.144Z,12503.04
2023-04-15T10:00:26.817Z,11714.56
2023-04-15T10:01:26.950Z,12083.2
2023-04-15T10:02:27.140Z,12605.439
2023-04-15T10:03:27.330Z,14233.6
2023-04-15T10:04:27.465Z,14069.76
2023-04-15T10:05:27.801Z,15831.04
2023-04-15T10:06:27.573Z,17459.2
2023-04-15T10:07:27.731Z,16660.48
2023-04-15T10:08:27.851Z,15902.72
2023-04-15T10:09:27.984Z,16465.92
2023-04-15T10:10:28.091Z,17930.24
2023-04-15T10:11:29.635Z,20254.72
2023-04-15T10:12:28.406Z,20183.04
2023-04-15T10:13:28.494Z,20039.68
2023-04-15T10:14:29.173Z,18974.72
2023-04-15T10:16:28.946Z,19537.92
2023-04-15T10:17:31.219Z,18913.28
2023-04-15T10:18:29.292Z,18780.16
2023-04-15T10:19:29.403Z,17879.04
2023-04-15T10:20:29.557Z,17111.04
2023-04-15T10:21:29.697Z,18380.8
2023-04-15T10:22:29.833Z,17756.16
2023-04-15T10:23:29.984Z,16906.24
2023-04-15T10:24:30.070Z,16547.84
2023-04-15T10:25:30.206Z,16640
2023-04-15T10:26:30.362Z,18667.52
2023-04-15T10:27:30.523Z,21565.44
2023-04-15T10:28:30.663Z,18042.88
2023-04-15T10:29:31.315Z,17326.08
2023-04-15T10:30:30.976Z,16240.64
2023-04-15T10:31:31.165Z,15687.68
2023-04-15T10:32:31.323Z,17008.64
2023-04-15T10:33:31.435Z,15462.399
2023-04-15T10:34:31.569Z,15636.479
2023-04-15T10:35:31.736Z,16476.16
2023-04-15T10:36:31.868Z,18718.72
2023-04-15T10:37:32.022Z,17704.96
2023-04-15T10:38:32.178Z,15462.399
2023-04-15T10:39:32.331Z,13803.52
2023-04-15T10:40:32.497Z,12605.439
2023-04-15T10:41:32.627Z,12021.76
2023-04-15T10:42:32.743Z,11284.479
2023-04-15T10:43:32.882Z,10649.6
2023-04-15T10:44:33.542Z,11376.64
2023-04-15T10:45:33.131Z,12687.359
2023-04-15T10:46:33.333Z,12165.12
2023-04-15T10:47:33.423Z,12216.319
2023-04-15T10:48:33.562Z,14888.96
2023-04-15T10:49:33.644Z,15544.319
2023-04-15T10:50:33.753Z,14622.72
2023-04-15T10:51:33.883Z,13895.68
2023-04-15T10:52:34.007Z,14510.08
2023-04-15T10:53:34.162Z,16138.239
2023-04-15T10:54:34.300Z,15360
2023-04-15T10:55:34.480Z,13332.479
2023-04-15T10:56:34.610Z,12625.92
2023-04-15T10:57:34.711Z,11325.439
2023-04-15T10:58:34.864Z,10455.04
2023-04-15T10:59:35.551Z,10373.12
2023-04-15T11:00:35.111Z,11048.96
2023-04-15T11:01:35.324Z,11816.96
2023-04-15T11:02:35.591Z,11653.12
2023-04-15T11:03:35.716Z,10803.2
2023-04-15T11:04:35.786Z,10214.399
2023-04-15T11:05:35.866Z,9784.319
2023-04-15T11:06:35.970Z,9543.68
2023-04-15T11:07:36.120Z,9584.64
2023-04-15T11:08:36.281Z,9676.8
2023-04-15T11:09:36.414Z,9815.04
2023-04-15T11:10:36.605Z,10152.96
2023-04-15T11:11:36.723Z,10782.72
2023-04-15T11:12:36.883Z,11438.08
2023-04-15T11:13:37.035Z,12226.56
2023-04-15T11:14:37.729Z,12595.2
2023-04-15T11:15:37.331Z,12800
2023-04-15T11:16:37.514Z,13127.68
2023-04-15T11:17:37.677Z,13957.12
2023-04-15T11:18:37.746Z,14336
2023-04-15T11:19:37.896Z,14622.72
2023-04-15T11:20:37.984Z,14817.279
2023-04-15T11:21:38.171Z,14909.439
2023-04-15T11:22:38.260Z,14704.64
2023-04-15T11:23:38.383Z,14295.04
2023-04-15T11:24:38.498Z,13987.84
2023-04-15T11:25:38.641Z,14202.88
2023-04-15T11:26:38.793Z,14530.56
2023-04-15T11:27:38.951Z,14407.68
2023-04-15T11:28:39.280Z,13977.6
2023-04-15T11:29:39.741Z,13506.56
2023-04-15T11:30:39.387Z,13312
2023-04-15T11:31:39.489Z,13342.72
2023-04-15T11:32:39.650Z,13434.88
2023-04-15T11:33:39.761Z,13342.72
2023-04-15T11:34:39.921Z,13240.319
2023-04-15T11:35:40.093Z,13352.96
2023-04-15T11:36:40.224Z,13496.319
2023-04-15T11:37:40.381Z,13547.52
2023-04-15T11:38:40.518Z,13434.88
2023-04-15T11:39:40.664Z,13486.08
2023-04-15T11:40:40.881Z,13547.52
2023-04-15T11:41:40.972Z,13619.199
2023-04-15T11:42:49.400Z,13690.88
2023-04-15T11:43:41.271Z,13240.319
2023-04-15T11:44:41.884Z,12533.76
2023-04-15T11:45:41.595Z,11581.439
2023-04-15T11:46:42.404Z,10915.84
2023-04-15T11:47:41.876Z,10670.08
2023-04-15T11:48:41.982Z,10506.24
2023-04-15T11:49:42.098Z,10373.12
2023-04-15T11:50:42.237Z,10496
2023-04-15T11:51:42.307Z,10547.2
2023-04-15T11:52:42.510Z,10536.96
2023-04-15T11:53:42.619Z,10608.64
2023-04-15T11:54:42.774Z,10639.359
2023-04-15T11:55:42.891Z,10731.52
2023-04-15T11:56:43.011Z,10936.319
2023-04-15T11:57:43.688Z,11089.92
2023-04-15T11:58:43.366Z,11182.08
2023-04-15T11:59:45.641Z,11192.319
2023-04-15T12:00:43.674Z,11018.24
2023-04-15T12:01:43.771Z,10598.399
2023-04-15T12:02:43.998Z,10188.8
2023-04-15T12:03:44.248Z,9763.84
2023-04-15T12:04:44.246Z,9118.72
2023-04-15T12:05:44.355Z,8601.6
2023-04-15T12:06:44.431Z,8171.52
2023-04-15T12:07:45.198Z,8064
2023-04-15T12:08:44.789Z,8320
2023-04-15T12:09:44.915Z,8796.16
2023-04-15T12:10:45.059Z,9154.56
2023-04-15T12:11:45.251Z,9472
2023-04-15T12:12:45.353Z,10035.2
2023-04-15T12:13:45.474Z,10659.84
2023-04-15T12:14:46.101Z,11243.52
2023-04-15T12:15:45.847Z,11991.04
2023-04-15T12:16:48.068Z,12503.04
2023-04-15T12:17:50.838Z,12840.96
2023-04-15T12:18:46.184Z,12892.16
2023-04-15T12:19:46.322Z,12871.68
2023-04-15T12:20:46.485Z,12820.479
2023-04-15T12:21:46.629Z,12820.479
2023-04-15T12:22:46.796Z,12830.72
2023-04-15T12:23:46.930Z,12820.479
2023-04-15T12:24:47.101Z,12902.399
2023-04-15T12:25:47.236Z,12902.399
2023-04-15T12:26:47.334Z,12810.239
2023-04-15T12:27:47.434Z,12482.56
2023-04-15T12:28:47.617Z,12216.319
2023-04-15T12:29:48.144Z,11878.399
2023-04-15T12:30:47.844Z,11540.479
2023-04-15T12:31:47.983Z,11151.359
2023-04-15T12:32:48.108Z,10977.279
2023-04-15T12:33:48.248Z,10936.319